Pathfinder — WDD7777 — position and weather

sailwx.info

Track history (hours):
 
Tides and Currents Weather Stations Pressure Air Temp Water Temp Dewpoint Dewpoint Depression Visibility Wind Speed Wind Dir Waves Ship Positions

Pathfinder

Owner: Milton Point LLC, Norfolk, VA. More information available from US FCC via Universal Licensing System and Coast Guard Vessel Documentation Center.

Last reported at 2017-Dec-15 11:30 UTC. Time now 2017-Dec-15 11:56 UTC.
Position N 40°46' W 073°51'.

Length 31 m; draft 4.1 m.

Type: Towing. MMSI: 367191190.

Date/timePositionNaut miles runAvg speedWind from/ knotsBaromVisibWave heightAir tempDewpointWater temp
2017-Dec-15 11:30N 40°46' W 073°51'0 0.0
2017-Dec-15 11:00N 40°46' W 073°51'0 0.0
2017-Dec-15 10:30N 40°46' W 073°51'0 0.0
2017-Dec-15 10:00N 40°46' W 073°51'0 0.0
2017-Dec-15 09:30N 40°46' W 073°51'0 0.0
2017-Dec-15 09:00N 40°46' W 073°51'0 0.0
2017-Dec-15 08:26N 40°46' W 073°51'0 0.0
2017-Dec-15 08:00N 40°46' W 073°51'0 0.0
2017-Dec-15 07:30N 40°46' W 073°51'0 0.0
2017-Dec-15 06:59N 40°46' W 073°51'0 0.0
2017-Dec-15 06:30N 40°46' W 073°51'0 0.0
2017-Dec-15 06:00N 40°46' W 073°51'0 0.0
2017-Dec-15 05:31N 40°46' W 073°51'0 0.0
2017-Dec-15 05:00N 40°46' W 073°51'0 0.0
2017-Dec-15 04:30N 40°46' W 073°51'0 0.1
2017-Dec-15 04:00N 40°46' W 073°51'0 0.0
2017-Dec-15 01:00N 40°46' W 073°51'0 0.0
2017-Dec-15 00:28N 40°46' W 073°51'17 2.9
2017-Dec-14 18:30N 40°38' W 074°12'0 0.2
2017-Dec-14 18:00N 40°38' W 074°12'0 0.0
2017-Dec-14 17:31N 40°38' W 074°12'0 0.0
2017-Dec-14 17:00N 40°38' W 074°12'2 3.3
2017-Dec-14 16:30N 40°39' W 074°09'2 4.4
2017-Dec-14 16:00N 40°39' W 074°07'5 5.3
2017-Dec-14 15:00N 40°41' W 074°01'4 7.0
2017-Dec-14 14:30N 40°44' W 073°58'4 8.7
2017-Dec-14 14:00N 40°48' W 073°54'2 4.4
2017-Dec-14 13:31N 40°47' W 073°52'1 2.3
2017-Dec-14 13:01N 40°46' W 073°51'0 0.0
2017-Dec-14 12:30N 40°46' W 073°51'0 0.0
2017-Dec-14 12:00N 40°46' W 073°51'0 0.0
2017-Dec-14 11:31N 40°46' W 073°51'0 0.0
2017-Dec-14 11:00N 40°46' W 073°51'0 0.0
2017-Dec-14 10:30N 40°46' W 073°51'0 0.0
2017-Dec-14 10:00N 40°46' W 073°51'0 0.0
2017-Dec-14 09:31N 40°46' W 073°51'0 0.0
2017-Dec-14 09:01N 40°46' W 073°51'0 0.0
2017-Dec-14 08:30N 40°46' W 073°51'0 0.1
2017-Dec-14 08:00N 40°46' W 073°51'0 0.0
2017-Dec-14 07:30N 40°46' W 073°51'0 0.1
2017-Dec-14 07:00N 40°46' W 073°51'0 0.0
2017-Dec-14 06:26N 40°46' W 073°51'0 0.0
2017-Dec-14 05:59N 40°46' W 073°51'0 0.0
2017-Dec-14 05:30N 40°46' W 073°51'0 0.0
2017-Dec-14 04:59N 40°46' W 073°51'0 0.0
2017-Dec-14 04:30N 40°46' W 073°51'0 0.0
2017-Dec-14 03:18N 40°46' W 073°51'0 0.0
2017-Dec-14 03:00N 40°46' W 073°51'0 0.0
2017-Dec-14 02:30N 40°46' W 073°51'0 0.0
2017-Dec-14 02:00N 40°46' W 073°51'0 0.0
2017-Dec-14 01:30N 40°46' W 073°51'0 0.0
2017-Dec-14 01:00N 40°46' W 073°51'0 0.0
2017-Dec-14 00:30N 40°46' W 073°51'0 0.0
2017-Dec-13 23:59N 40°46' W 073°51'0 0.0
2017-Dec-13 23:28N 40°46' W 073°51'0 0.0
2017-Dec-13 22:55N 40°46' W 073°51'0 0.0
2017-Dec-13 22:30N 40°46' W 073°51'0 0.0
2017-Dec-13 21:58N 40°46' W 073°51'0 0.0
2017-Dec-13 21:29N 40°46' W 073°51'0 0.0
2017-Dec-13 21:00N 40°46' W 073°51'0 0.0
2017-Dec-13 20:29N 40°46' W 073°51'1 1.9
2017-Dec-13 19:59N 40°47' W 073°52'2 3.6
2017-Dec-13 19:31N 40°48' W 073°53'3 6.6
2017-Dec-13 19:01N 40°46' W 073°57'3 6.1
2017-Dec-13 18:30N 40°43' W 073°58'3 5.5
2017-Dec-13 18:00N 40°41' W 074°01'2 4.3
2017-Dec-13 17:30N 40°40' W 074°03'2 4.9
2017-Dec-13 17:00N 40°39' W 074°06'3 5.5
2017-Dec-13 16:31N 40°39' W 074°09'2 3.4
2017-Dec-13 16:00N 40°38' W 074°12'0 0.1
2017-Dec-13 15:30N 40°38' W 074°12'0 0.0
2017-Dec-13 14:57N 40°38' W 074°12'0 0.0
2017-Dec-13 14:30N 40°38' W 074°12'0 0.0
2017-Dec-13 14:00N 40°38' W 074°12'0 0.0
2017-Dec-13 13:30N 40°38' W 074°12'0 0.0
2017-Dec-13 12:52N 40°38' W 074°12'0 0.0
2017-Dec-13 12:29N 40°38' W 074°12'0 0.0
2017-Dec-13 12:00N 40°38' W 074°12'0 0.0
2017-Dec-13 11:30N 40°38' W 074°12'0 0.0
2017-Dec-13 11:00N 40°38' W 074°12'0 0.0
2017-Dec-13 10:30N 40°38' W 074°12'0 0.0
2017-Dec-13 10:00N 40°38' W 074°12'0 0.0
2017-Dec-13 09:27N 40°38' W 074°12'0 0.0
2017-Dec-13 08:20N 40°38' W 074°12'0 0.0
2017-Dec-13 08:00N 40°38' W 074°12'0 0.0
2017-Dec-13 07:29N 40°38' W 074°12'2 3.7
2017-Dec-13 07:00N 40°39' W 074°09'3 5.9
2017-Dec-13 06:30N 40°39' W 074°05'3 5.1
2017-Dec-13 06:01N 40°40' W 074°03'2 4.8
2017-Dec-13 05:31N 40°42' W 074°00'2 4.4
2017-Dec-13 05:01N 40°43' W 073°58'3 6.2
2017-Dec-13 04:30N 40°46' W 073°57'3 6.0
2017-Dec-13 04:00N 40°48' W 073°53'2 4.3
2017-Dec-13 03:30N 40°47' W 073°51'0 1.0
2017-Dec-13 03:01N 40°46' W 073°51'0 0.0
2017-Dec-13 02:30N 40°46' W 073°51'0 0.0
2017-Dec-13 02:00N 40°46' W 073°51'0 0.0
2017-Dec-13 01:29N 40°46' W 073°51'0 0.0
2017-Dec-13 01:00N 40°46' W 073°51'0 0.0
2017-Dec-13 00:30N 40°46' W 073°51'0 0.0
2017-Dec-13 00:01N 40°46' W 073°51'0 0.0
2017-Dec-12 23:30N 40°46' W 073°51'0 0.1
2017-Dec-12 23:00N 40°46' W 073°51'0 0.0
2017-Dec-12 22:30N 40°46' W 073°51'0 0.0
2017-Dec-12 22:00N 40°46' W 073°51'0 0.0
2017-Dec-12 21:30N 40°46' W 073°51'0 0.0
2017-Dec-12 21:00N 40°46' W 073°51'1 1.9
2017-Dec-12 20:31N 40°47' W 073°52'2 4.2
2017-Dec-12 19:59N 40°48' W 073°54'4 7.6
2017-Dec-12 19:30N 40°45' W 073°57'3 6.4
2017-Dec-12 19:01N 40°42' W 073°59'3 6.4
2017-Dec-12 18:31N 40°40' W 074°02'3 5.1
2017-Dec-12 18:01N 40°39' W 074°05'2 4.1
2017-Dec-12 17:30N 40°39' W 074°08'2 4.1
2017-Dec-12 17:00N 40°39' W 074°10'1 2.1
2017-Dec-12 16:30N 40°38' W 074°12'0 0.1
2017-Dec-12 16:01N 40°38' W 074°12'0 0.0
2017-Dec-12 15:29N 40°38' W 074°12'0 0.0
2017-Dec-12 15:00N 40°38' W 074°12'0 0.0
2017-Dec-12 14:29N 40°38' W 074°12'0 0.0
2017-Dec-12 13:59N 40°38' W 074°12'0 0.0
2017-Dec-12 13:31N 40°38' W 074°12'0 0.0
2017-Dec-12 13:00N 40°38' W 074°12'0 0.0
2017-Dec-12 12:30N 40°38' W 074°12'0 0.0
2017-Dec-12 12:00N 40°38' W 074°12'0 0.1
2017-Dec-12 11:30N 40°38' W 074°12'0 0.0
2017-Dec-12 11:00N 40°38' W 074°12'0 0.0
2017-Dec-12 10:30N 40°38' W 074°12'0 0.0
2017-Dec-12 10:00N 40°38' W 074°12'0 0.0
2017-Dec-12 09:29N 40°38' W 074°12'0 0.0
2017-Dec-12 09:01N 40°38' W 074°12'0 0.0
2017-Dec-12 08:31N 40°38' W 074°12'0 0.0
2017-Dec-12 08:00N 40°38' W 074°12'0 0.0
2017-Dec-12 07:30N 40°38' W 074°12'0 0.0
2017-Dec-12 07:00N 40°38' W 074°12'0 0.0
2017-Dec-12 06:30N 40°38' W 074°12'0 0.0
2017-Dec-12 06:00N 40°38' W 074°12'0 0.0
2017-Dec-12 05:30N 40°38' W 074°12'0 0.0
2017-Dec-12 05:00N 40°38' W 074°12'0 0.0
2017-Dec-12 04:29N 40°38' W 074°12'1 1.3
2017-Dec-12 04:00N 40°39' W 074°11'2 3.9
2017-Dec-12 03:30N 40°39' W 074°09'2 4.1
2017-Dec-12 03:00N 40°39' W 074°06'2 3.7
2017-Dec-12 02:30N 40°40' W 074°04'2 4.7
2017-Dec-12 02:01N 40°41' W 074°01'3 5.6
2017-Dec-12 01:31N 40°43' W 073°58'4 6.7
2017-Dec-12 00:58N 40°46' W 073°57'3 6.3
2017-Dec-12 00:30N 40°48' W 073°54'2 3.9
2017-Dec-12 00:00N 40°47' W 073°52'1 2.1
2017-Dec-11 23:28N 40°46' W 073°51'0 0.0
2017-Dec-11 23:00N 40°46' W 073°51'0 0.0
2017-Dec-11 22:29N 40°46' W 073°51'0 0.0
2017-Dec-11 22:00N 40°46' W 073°51'0 0.0
2017-Dec-11 21:29N 40°46' W 073°51'0 0.0
2017-Dec-11 21:00N 40°46' W 073°51'2 3.1
2017-Dec-11 20:30N 40°48' W 073°52'3 5.4
2017-Dec-11 20:00N 40°47' W 073°55'4 7.4
2017-Dec-11 19:30N 40°44' W 073°58'3 6.4
2017-Dec-11 19:00N 40°42' W 074°00'3 6.0
2017-Dec-11 18:31N 40°40' W 074°03'2 4.9
2017-Dec-11 18:01N 40°39' W 074°06'2 4.3
2017-Dec-11 17:30N 40°39' W 074°09'2 3.6
2017-Dec-11 16:59N 40°38' W 074°12'1 1.5
2017-Dec-11 16:30N 40°39' W 074°11'3 5.2
2017-Dec-11 16:00N 40°39' W 074°07'2 5.0
2017-Dec-11 15:30N 40°39' W 074°04'2 4.5
2017-Dec-11 15:01N 40°41' W 074°02'3 5.5
2017-Dec-11 14:31N 40°42' W 073°59'3 5.9
2017-Dec-11 14:01N 40°45' W 073°58'4 7.3
2017-Dec-11 13:30N 40°48' W 073°54'2 4.1
2017-Dec-11 13:00N 40°47' W 073°52'1 2.5
2017-Dec-11 12:30N 40°46' W 073°51'0 0.0
2017-Dec-11 12:00N 40°46' W 073°51'0 0.0
2017-Dec-11 11:28N 40°46' W 073°51'0 0.0
2017-Dec-11 10:38N 40°46' W 073°51'0 0.0
2017-Dec-11 10:24N 40°46' W 073°51'0 0.0
2017-Dec-11 10:00N 40°46' W 073°51'0 0.0
2017-Dec-11 09:29N 40°46' W 073°51'0 0.0
2017-Dec-11 09:00N 40°46' W 073°51'0 0.0
2017-Dec-11 08:30N 40°46' W 073°51'0 0.0
2017-Dec-11 08:00N 40°46' W 073°51'0 0.0
2017-Dec-11 07:30N 40°46' W 073°51'0 0.0
2017-Dec-11 07:00N 40°46' W 073°51'0 0.0
2017-Dec-11 06:27N 40°46' W 073°51'0 0.0
2017-Dec-11 06:00N 40°46' W 073°51'0 0.0
2017-Dec-11 05:18N 40°46' W 073°51'0 0.0
2017-Dec-11 05:00N 40°46' W 073°51'0 0.0
2017-Dec-11 04:28N 40°46' W 073°51'0 0.0
2017-Dec-11 04:01N 40°46' W 073°51'0 0.0
2017-Dec-11 03:30N 40°46' W 073°51'0 0.0
2017-Dec-11 03:00N 40°46' W 073°51'0 0.0
2017-Dec-11 02:30N 40°46' W 073°51'0 0.0
2017-Dec-11 02:01N 40°46' W 073°51'0 0.0
2017-Dec-11 01:30N 40°46' W 073°51'0 0.0
2017-Dec-11 01:00N 40°46' W 073°51'0 0.0
2017-Dec-11 00:30N 40°46' W 073°51'0 0.0
2017-Dec-11 00:00N 40°46' W 073°51'0 0.0
2017-Dec-10 23:30N 40°46' W 073°51'0 0.0
2017-Dec-10 23:00N 40°46' W 073°51'0 0.0
2017-Dec-10 22:30N 40°46' W 073°51'0 0.0
2017-Dec-10 22:00N 40°46' W 073°51'0 0.0
2017-Dec-10 21:31N 40°46' W 073°51'0 0.0
2017-Dec-10 21:00N 40°46' W 073°51'0 0.0
2017-Dec-10 20:30N 40°46' W 073°51'0 0.0
2017-Dec-10 19:58N 40°46' W 073°51'0 0.0
2017-Dec-10 19:30N 40°46' W 073°51'0 0.0
2017-Dec-10 19:00N 40°46' W 073°51'0 0.1
2017-Dec-10 18:29N 40°46' W 073°51'0 0.0
2017-Dec-10 18:00N 40°46' W 073°51'0 0.0
2017-Dec-10 17:30N 40°46' W 073°51'0 0.0
2017-Dec-10 17:00N 40°46' W 073°51'0 0.1
2017-Dec-10 16:29N 40°46' W 073°51'0 0.0
2017-Dec-10 16:01N 40°46' W 073°51'0 0.0
2017-Dec-10 15:29N 40°46' W 073°51'0 0.1
2017-Dec-10 14:58N 40°46' W 073°51'0 0.1
2017-Dec-10 14:30N 40°46' W 073°51'0 0.0
2017-Dec-10 14:00N 40°46' W 073°51'0 0.0
2017-Dec-10 13:30N 40°46' W 073°51'0 0.0
2017-Dec-10 13:00N 40°46' W 073°51'0 0.0
2017-Dec-10 12:30N 40°46' W 073°51'0 0.0
2017-Dec-10 12:00N 40°46' W 073°51'0 0.0
2017-Dec-10 11:30N 40°46' W 073°51'0 0.0
2017-Dec-10 11:00N 40°46' W 073°51'0 0.0
2017-Dec-10 10:30N 40°46' W 073°51'0 0.0
2017-Dec-10 10:00N 40°46' W 073°51'0 0.0
2017-Dec-10 09:30N 40°46' W 073°51'0 0.0
2017-Dec-10 09:00N 40°46' W 073°51'0 0.0
2017-Dec-10 08:30N 40°46' W 073°51'0 0.0
2017-Dec-10 07:59N 40°46' W 073°51'0 0.0
2017-Dec-10 07:30N 40°46' W 073°51'0 0.0
2017-Dec-10 06:58N 40°46' W 073°51'0 0.0
2017-Dec-10 06:29N 40°46' W 073°51'0 0.0
2017-Dec-10 06:00N 40°46' W 073°51'0 0.0
2017-Dec-10 05:30N 40°46' W 073°51'0 0.0
2017-Dec-10 05:00N 40°46' W 073°51'0 0.0
2017-Dec-10 04:30N 40°46' W 073°51'0 0.0
2017-Dec-10 04:00N 40°46' W 073°51'0 0.0
2017-Dec-10 03:30N 40°46' W 073°51'0 0.0
2017-Dec-10 03:00N 40°46' W 073°51'0 0.0
2017-Dec-10 02:30N 40°46' W 073°51'0 0.0
2017-Dec-10 01:57N 40°46' W 073°51'0 0.0
2017-Dec-10 01:30N 40°46' W 073°51'0 0.0
2017-Dec-10 01:00N 40°46' W 073°51'0 0.0
2017-Dec-10 00:30N 40°46' W 073°51'0 0.0
2017-Dec-10 00:00N 40°46' W 073°51'0 0.0
2017-Dec-09 23:29N 40°46' W 073°51'0 0.0
2017-Dec-09 23:00N 40°46' W 073°51'0 0.0
2017-Dec-09 22:30N 40°46' W 073°51'0 0.0
2017-Dec-09 22:00N 40°46' W 073°51'0 0.0
2017-Dec-09 21:31N 40°46' W 073°51'0 0.0
2017-Dec-09 20:59N 40°46' W 073°51'0 0.0
2017-Dec-09 20:31N 40°46' W 073°51'0 0.0
2017-Dec-09 19:59N 40°46' W 073°51'0 0.0
2017-Dec-09 19:12N 40°46' W 073°51'0 0.0
2017-Dec-09 19:00N 40°46' W 073°51'0 0.0
2017-Dec-09 18:30N 40°46' W 073°51'0 0.0
2017-Dec-09 17:58N 40°46' W 073°51'0 0.0
2017-Dec-09 17:30N 40°46' W 073°51'0 0.0
2017-Dec-09 17:00N 40°46' W 073°51'0 0.0
2017-Dec-09 16:30N 40°46' W 073°51'0 0.1
2017-Dec-09 16:00N 40°46' W 073°51'2 3.4
2017-Dec-09 15:29N 40°48' W 073°52'3 6.3
2017-Dec-09 14:59N 40°47' W 073°56'3 7.1
2017-Dec-09 14:31N 40°44' W 073°58'3 5.8
2017-Dec-09 14:00N 40°41' W 074°00'2 4.9
2017-Dec-09 13:31N 40°40' W 074°03'3 5.1
2017-Dec-09 13:00N 40°39' W 074°06'2 4.7
2017-Dec-09 12:30N 40°39' W 074°09'2 3.9
2017-Dec-09 12:00N 40°38' W 074°12'0 0.0
2017-Dec-09 11:30N 40°38' W 074°12'0 0.0
2017-Dec-09 11:01N 40°38' W 074°12'0 0.0
2017-Dec-09 10:31N 40°38' W 074°12'0 0.0
2017-Dec-09 10:00N 40°38' W 074°12'0 0.0
2017-Dec-09 09:30N 40°38' W 074°12'0 0.0
2017-Dec-09 09:00N 40°38' W 074°12'0 0.0
2017-Dec-09 08:30N 40°38' W 074°12'0 0.0
2017-Dec-09 08:00N 40°38' W 074°12'0 0.0
2017-Dec-09 07:29N 40°38' W 074°12'0 0.0
2017-Dec-09 07:00N 40°38' W 074°12'0 0.0
2017-Dec-09 06:30N 40°38' W 074°12'0 0.0
2017-Dec-09 06:00N 40°38' W 074°12'0 0.0
2017-Dec-09 05:31N 40°38' W 074°12'0 0.0
2017-Dec-09 05:00N 40°38' W 074°12'0 0.0
2017-Dec-09 04:30N 40°38' W 074°12'0 0.0
2017-Dec-09 04:00N 40°38' W 074°12'0 0.0
2017-Dec-09 03:30N 40°38' W 074°12'0 0.6
2017-Dec-09 03:00N 40°39' W 074°11'2 4.7
2017-Dec-09 02:30N 40°39' W 074°08'2 4.3
2017-Dec-09 02:00N 40°39' W 074°05'2 4.9
2017-Dec-09 01:31N 40°40' W 074°03'2 4.7
2017-Dec-09 01:00N 40°42' W 074°00'2 4.5
2017-Dec-09 00:30N 40°43' W 073°58'3 5.9
2017-Dec-08 23:59N 40°46' W 073°57'3 6.3
2017-Dec-08 23:30N 40°48' W 073°54'2 4.2
2017-Dec-08 23:00N 40°47' W 073°52'1 1.9
2017-Dec-08 22:31N 40°46' W 073°51'0 0.0
2017-Dec-08 22:00N 40°46' W 073°51'0 0.0
2017-Dec-08 21:29N 40°46' W 073°51'0 0.0
2017-Dec-08 21:00N 40°46' W 073°51'0 0.0
2017-Dec-08 20:30N 40°46' W 073°51'0 0.0
2017-Dec-08 20:00N 40°46' W 073°51'0 0.0
2017-Dec-08 19:30N 40°46' W 073°51'0 0.0
2017-Dec-08 19:00N 40°46' W 073°51'0 0.0
2017-Dec-08 18:28N 40°46' W 073°51'0 0.0
2017-Dec-08 18:00N 40°46' W 073°51'0 0.0
2017-Dec-08 17:31N 40°46' W 073°51'0 0.0
2017-Dec-08 17:00N 40°46' W 073°51'0 0.0
2017-Dec-08 16:30N 40°46' W 073°51'0 0.0
2017-Dec-08 15:59N 40°46' W 073°51'0 0.0
2017-Dec-08 15:30N 40°46' W 073°51'0 0.0
2017-Dec-08 15:00N 40°46' W 073°51'0 0.0
2017-Dec-08 14:30N 40°46' W 073°51'0 0.0
2017-Dec-08 14:00N 40°46' W 073°51'0 0.0
2017-Dec-08 13:29N 40°46' W 073°51'0 0.0
2017-Dec-08 13:00N 40°46' W 073°51'0 0.0
2017-Dec-08 12:30N 40°46' W 073°51'0 0.0
2017-Dec-08 12:01N 40°46' W 073°51'0 0.0
2017-Dec-08 11:30N 40°46' W 073°51'0 0.0
2017-Dec-08 10:58N 40°46' W 073°51'0 0.0
2017-Dec-08 10:29N 40°46' W 073°51'0 0.0
2017-Dec-08 10:00N 40°46' W 073°51'0 0.1
2017-Dec-08 09:30N 40°46' W 073°51'0 0.0
2017-Dec-08 08:56N 40°46' W 073°51'0 0.0
2017-Dec-08 08:22N 40°46' W 073°51'0 0.0
2017-Dec-08 07:59N 40°46' W 073°51'0 0.0
2017-Dec-08 07:29N 40°46' W 073°51'0 0.0
2017-Dec-08 07:00N 40°46' W 073°51'0 0.0
2017-Dec-08 06:29N 40°46' W 073°51'0 0.0
2017-Dec-08 05:59N 40°46' W 073°51'0 0.0
2017-Dec-08 05:28N 40°46' W 073°51'0 0.0
2017-Dec-08 05:00N 40°46' W 073°51'1 1.3
2017-Dec-08 04:30N 40°47' W 073°51'2 4.9
2017-Dec-08 04:00N 40°48' W 073°54'4 9.0
2017-Dec-08 03:30N 40°44' W 073°58'4 7.2
2017-Dec-08 03:01N 40°41' W 074°00'3 6.5
2017-Dec-08 02:30N 40°40' W 074°04'2 4.6
2017-Dec-08 02:01N 40°39' W 074°07'2 4.7
2017-Dec-08 01:31N 40°39' W 074°10'1 2.7
2017-Dec-08 01:01N 40°38' W 074°12'1 1.4
2017-Dec-08 00:30N 40°39' W 074°11'3 5.4
2017-Dec-08 00:00N 40°39' W 074°07'3 5.1
2017-Dec-07 23:31N 40°40' W 074°04'3 5.3
2017-Dec-07 23:00N 40°41' W 074°01'3 5.9
2017-Dec-07 22:30N 40°43' W 073°58'4 7.0
2017-Dec-07 22:00N 40°46' W 073°57'3 6.3
2017-Dec-07 21:30N 40°48' W 073°53'2 4.0
2017-Dec-07 21:00N 40°47' W 073°51'1 1.2
2017-Dec-07 20:29N 40°46' W 073°51'0 0.0
2017-Dec-07 20:00N 40°46' W 073°51'0 0.0
2017-Dec-07 19:31N 40°46' W 073°51'0 0.0
2017-Dec-07 19:00N 40°46' W 073°51'0 0.0
2017-Dec-07 18:30N 40°46' W 073°51'0 0.0
2017-Dec-07 18:01N 40°46' W 073°51'0 0.0
2017-Dec-07 17:30N 40°46' W 073°51'0 0.1
2017-Dec-07 16:59N 40°46' W 073°51'0 0.0
2017-Dec-07 16:27N 40°46' W 073°51'0 0.0
2017-Dec-07 16:00N 40°46' W 073°51'0 0.0
2017-Dec-07 15:29N 40°46' W 073°51'0 0.0
2017-Dec-07 14:59N 40°46' W 073°51'0 0.0
2017-Dec-07 14:25N 40°46' W 073°51'0 0.0
2017-Dec-07 13:45N 40°46' W 073°51'0 0.0
2017-Dec-07 13:30N 40°46' W 073°51'0 0.0
2017-Dec-07 12:58N 40°46' W 073°51'0 0.0
2017-Dec-07 12:28N 40°46' W 073°51'0 0.0
2017-Dec-07 12:00N 40°46' W 073°51'0 0.0
2017-Dec-07 11:29N 40°46' W 073°51'0 0.0
2017-Dec-07 11:00N 40°46' W 073°51'0 0.0
2017-Dec-07 10:30N 40°46' W 073°51'0 0.0
2017-Dec-07 09:59N 40°46' W 073°51'0 0.0
2017-Dec-07 09:31N 40°46' W 073°51'0 0.0
2017-Dec-07 09:01N 40°46' W 073°51'0 0.0
2017-Dec-07 08:29N 40°46' W 073°51'0 0.0
2017-Dec-07 08:00N 40°46' W 073°51'0 0.0
2017-Dec-07 07:29N 40°46' W 073°51'0 0.0
2017-Dec-07 07:00N 40°46' W 073°51'0 0.0
2017-Dec-07 06:31N 40°46' W 073°51'0 0.0
2017-Dec-07 06:00N 40°46' W 073°51'0 0.0
2017-Dec-07 05:30N 40°46' W 073°51'0 0.0
2017-Dec-07 04:59N 40°46' W 073°51'0 0.9
2017-Dec-07 04:30N 40°46' W 073°51'1 2.0
2017-Dec-07 04:00N 40°47' W 073°51'2 4.8
2017-Dec-07 03:30N 40°48' W 073°54'4 7.7
2017-Dec-07 03:00N 40°45' W 073°57'3 6.6
2017-Dec-07 02:30N 40°42' W 073°59'3 6.7
2017-Dec-07 02:01N 40°40' W 074°02'3 6.3
2017-Dec-07 01:30N 40°39' W 074°06'3 5.2
2017-Dec-07 01:00N 40°39' W 074°09'2 3.5
2017-Dec-07 00:30N 40°38' W 074°12'0 0.1
2017-Dec-07 00:00N 40°38' W 074°12'2 4.4
2017-Dec-06 23:30N 40°39' W 074°09'2 4.8
2017-Dec-06 23:00N 40°39' W 074°06'2 4.2
2017-Dec-06 22:30N 40°40' W 074°03'3 5.5
2017-Dec-06 22:01N 40°42' W 074°00'3 5.8
2017-Dec-06 21:30N 40°44' W 073°58'4 7.3
2017-Dec-06 21:00N 40°47' W 073°55'  
Track history (hours):
 
Tides and Currents Weather Stations Pressure Air Temp Water Temp Dewpoint Dewpoint Depression Visibility Wind Speed Wind Dir Waves Ship Positions

Pathfinder

Owner: Milton Point LLC, Norfolk, VA. More information available from US FCC via Universal Licensing System and Coast Guard Vessel Documentation Center.

Last reported at 2017-Dec-15 11:30 UTC. Time now 2017-Dec-15 11:56 UTC.
Position N 40°46' W 073°51'.

Length 31 m; draft 4.1 m.

Type: Towing. MMSI: 367191190.

Date/timePositionNaut miles runAvg speedWind from/ knotsBaromVisibWave heightAir tempDewpointWater temp
2017-Dec-15 11:30N 40°46' W 073°51'0 0.0
2017-Dec-15 11:00N 40°46' W 073°51'0 0.0
2017-Dec-15 10:30N 40°46' W 073°51'0 0.0
2017-Dec-15 10:00N 40°46' W 073°51'0 0.0
2017-Dec-15 09:30N 40°46' W 073°51'0 0.0
2017-Dec-15 09:00N 40°46' W 073°51'0 0.0
2017-Dec-15 08:26N 40°46' W 073°51'0 0.0
2017-Dec-15 08:00N 40°46' W 073°51'0 0.0
2017-Dec-15 07:30N 40°46' W 073°51'0 0.0
2017-Dec-15 06:59N 40°46' W 073°51'0 0.0
2017-Dec-15 06:30N 40°46' W 073°51'0 0.0
2017-Dec-15 06:00N 40°46' W 073°51'0 0.0
2017-Dec-15 05:31N 40°46' W 073°51'0 0.0
2017-Dec-15 05:00N 40°46' W 073°51'0 0.0
2017-Dec-15 04:30N 40°46' W 073°51'0 0.1
2017-Dec-15 04:00N 40°46' W 073°51'0 0.0
2017-Dec-15 01:00N 40°46' W 073°51'0 0.0
2017-Dec-15 00:28N 40°46' W 073°51'17 2.9
2017-Dec-14 18:30N 40°38' W 074°12'0 0.2
2017-Dec-14 18:00N 40°38' W 074°12'0 0.0
2017-Dec-14 17:31N 40°38' W 074°12'0 0.0
2017-Dec-14 17:00N 40°38' W 074°12'2 3.3
2017-Dec-14 16:30N 40°39' W 074°09'2 4.4
2017-Dec-14 16:00N 40°39' W 074°07'5 5.3
2017-Dec-14 15:00N 40°41' W 074°01'4 7.0
2017-Dec-14 14:30N 40°44' W 073°58'4 8.7
2017-Dec-14 14:00N 40°48' W 073°54'2 4.4
2017-Dec-14 13:31N 40°47' W 073°52'1 2.3
2017-Dec-14 13:01N 40°46' W 073°51'0 0.0
2017-Dec-14 12:30N 40°46' W 073°51'0 0.0
2017-Dec-14 12:00N 40°46' W 073°51'0 0.0
2017-Dec-14 11:31N 40°46' W 073°51'0 0.0
2017-Dec-14 11:00N 40°46' W 073°51'0 0.0
2017-Dec-14 10:30N 40°46' W 073°51'0 0.0
2017-Dec-14 10:00N 40°46' W 073°51'0 0.0
2017-Dec-14 09:31N 40°46' W 073°51'0 0.0
2017-Dec-14 09:01N 40°46' W 073°51'0 0.0
2017-Dec-14 08:30N 40°46' W 073°51'0 0.1
2017-Dec-14 08:00N 40°46' W 073°51'0 0.0
2017-Dec-14 07:30N 40°46' W 073°51'0 0.1
2017-Dec-14 07:00N 40°46' W 073°51'0 0.0
2017-Dec-14 06:26N 40°46' W 073°51'0 0.0
2017-Dec-14 05:59N 40°46' W 073°51'0 0.0
2017-Dec-14 05:30N 40°46' W 073°51'0 0.0
2017-Dec-14 04:59N 40°46' W 073°51'0 0.0
2017-Dec-14 04:30N 40°46' W 073°51'0 0.0
2017-Dec-14 03:18N 40°46' W 073°51'0 0.0
2017-Dec-14 03:00N 40°46' W 073°51'0 0.0
2017-Dec-14 02:30N 40°46' W 073°51'0 0.0
2017-Dec-14 02:00N 40°46' W 073°51'0 0.0
2017-Dec-14 01:30N 40°46' W 073°51'0 0.0
2017-Dec-14 01:00N 40°46' W 073°51'0 0.0
2017-Dec-14 00:30N 40°46' W 073°51'0 0.0
2017-Dec-13 23:59N 40°46' W 073°51'0 0.0
2017-Dec-13 23:28N 40°46' W 073°51'0 0.0
2017-Dec-13 22:55N 40°46' W 073°51'0 0.0
2017-Dec-13 22:30N 40°46' W 073°51'0 0.0
2017-Dec-13 21:58N 40°46' W 073°51'0 0.0
2017-Dec-13 21:29N 40°46' W 073°51'0 0.0
2017-Dec-13 21:00N 40°46' W 073°51'0 0.0
2017-Dec-13 20:29N 40°46' W 073°51'1 1.9
2017-Dec-13 19:59N 40°47' W 073°52'2 3.6
2017-Dec-13 19:31N 40°48' W 073°53'3 6.6
2017-Dec-13 19:01N 40°46' W 073°57'3 6.1
2017-Dec-13 18:30N 40°43' W 073°58'3 5.5
2017-Dec-13 18:00N 40°41' W 074°01'2 4.3
2017-Dec-13 17:30N 40°40' W 074°03'2 4.9
2017-Dec-13 17:00N 40°39' W 074°06'3 5.5
2017-Dec-13 16:31N 40°39' W 074°09'2 3.4
2017-Dec-13 16:00N 40°38' W 074°12'0 0.1
2017-Dec-13 15:30N 40°38' W 074°12'0 0.0
2017-Dec-13 14:57N 40°38' W 074°12'0 0.0
2017-Dec-13 14:30N 40°38' W 074°12'0 0.0
2017-Dec-13 14:00N 40°38' W 074°12'0 0.0
2017-Dec-13 13:30N 40°38' W 074°12'0 0.0
2017-Dec-13 12:52N 40°38' W 074°12'0 0.0
2017-Dec-13 12:29N 40°38' W 074°12'0 0.0
2017-Dec-13 12:00N 40°38' W 074°12'0 0.0
2017-Dec-13 11:30N 40°38' W 074°12'0 0.0
2017-Dec-13 11:00N 40°38' W 074°12'0 0.0
2017-Dec-13 10:30N 40°38' W 074°12'0 0.0
2017-Dec-13 10:00N 40°38' W 074°12'0 0.0
2017-Dec-13 09:27N 40°38' W 074°12'0 0.0
2017-Dec-13 08:20N 40°38' W 074°12'0 0.0
2017-Dec-13 08:00N 40°38' W 074°12'0 0.0
2017-Dec-13 07:29N 40°38' W 074°12'2 3.7
2017-Dec-13 07:00N 40°39' W 074°09'3 5.9
2017-Dec-13 06:30N 40°39' W 074°05'3 5.1
2017-Dec-13 06:01N 40°40' W 074°03'2 4.8
2017-Dec-13 05:31N 40°42' W 074°00'2 4.4
2017-Dec-13 05:01N 40°43' W 073°58'3 6.2
2017-Dec-13 04:30N 40°46' W 073°57'3 6.0
2017-Dec-13 04:00N 40°48' W 073°53'2 4.3
2017-Dec-13 03:30N 40°47' W 073°51'0 1.0
2017-Dec-13 03:01N 40°46' W 073°51'0 0.0
2017-Dec-13 02:30N 40°46' W 073°51'0 0.0
2017-Dec-13 02:00N 40°46' W 073°51'0 0.0
2017-Dec-13 01:29N 40°46' W 073°51'0 0.0
2017-Dec-13 01:00N 40°46' W 073°51'0 0.0
2017-Dec-13 00:30N 40°46' W 073°51'0 0.0
2017-Dec-13 00:01N 40°46' W 073°51'0 0.0
2017-Dec-12 23:30N 40°46' W 073°51'0 0.1
2017-Dec-12 23:00N 40°46' W 073°51'0 0.0
2017-Dec-12 22:30N 40°46' W 073°51'0 0.0
2017-Dec-12 22:00N 40°46' W 073°51'0 0.0
2017-Dec-12 21:30N 40°46' W 073°51'0 0.0
2017-Dec-12 21:00N 40°46' W 073°51'1 1.9
2017-Dec-12 20:31N 40°47' W 073°52'2 4.2
2017-Dec-12 19:59N 40°48' W 073°54'4 7.6
2017-Dec-12 19:30N 40°45' W 073°57'3 6.4
2017-Dec-12 19:01N 40°42' W 073°59'3 6.4
2017-Dec-12 18:31N 40°40' W 074°02'3 5.1
2017-Dec-12 18:01N 40°39' W 074°05'2 4.1
2017-Dec-12 17:30N 40°39' W 074°08'2 4.1
2017-Dec-12 17:00N 40°39' W 074°10'1 2.1
2017-Dec-12 16:30N 40°38' W 074°12'0 0.1
2017-Dec-12 16:01N 40°38' W 074°12'0 0.0
2017-Dec-12 15:29N 40°38' W 074°12'0 0.0
2017-Dec-12 15:00N 40°38' W 074°12'0 0.0
2017-Dec-12 14:29N 40°38' W 074°12'0 0.0
2017-Dec-12 13:59N 40°38' W 074°12'0 0.0
2017-Dec-12 13:31N 40°38' W 074°12'0 0.0
2017-Dec-12 13:00N 40°38' W 074°12'0 0.0
2017-Dec-12 12:30N 40°38' W 074°12'0 0.0
2017-Dec-12 12:00N 40°38' W 074°12'0 0.1
2017-Dec-12 11:30N 40°38' W 074°12'0 0.0
2017-Dec-12 11:00N 40°38' W 074°12'0 0.0
2017-Dec-12 10:30N 40°38' W 074°12'0 0.0
2017-Dec-12 10:00N 40°38' W 074°12'0 0.0
2017-Dec-12 09:29N 40°38' W 074°12'0 0.0
2017-Dec-12 09:01N 40°38' W 074°12'0 0.0
2017-Dec-12 08:31N 40°38' W 074°12'0 0.0
2017-Dec-12 08:00N 40°38' W 074°12'0 0.0
2017-Dec-12 07:30N 40°38' W 074°12'0 0.0
2017-Dec-12 07:00N 40°38' W 074°12'0 0.0
2017-Dec-12 06:30N 40°38' W 074°12'0 0.0
2017-Dec-12 06:00N 40°38' W 074°12'0 0.0
2017-Dec-12 05:30N 40°38' W 074°12'0 0.0
2017-Dec-12 05:00N 40°38' W 074°12'0 0.0
2017-Dec-12 04:29N 40°38' W 074°12'1 1.3
2017-Dec-12 04:00N 40°39' W 074°11'2 3.9
2017-Dec-12 03:30N 40°39' W 074°09'2 4.1
2017-Dec-12 03:00N 40°39' W 074°06'2 3.7
2017-Dec-12 02:30N 40°40' W 074°04'2 4.7
2017-Dec-12 02:01N 40°41' W 074°01'3 5.6
2017-Dec-12 01:31N 40°43' W 073°58'4 6.7
2017-Dec-12 00:58N 40°46' W 073°57'3 6.3
2017-Dec-12 00:30N 40°48' W 073°54'2 3.9
2017-Dec-12 00:00N 40°47' W 073°52'1 2.1
2017-Dec-11 23:28N 40°46' W 073°51'0 0.0
2017-Dec-11 23:00N 40°46' W 073°51'0 0.0
2017-Dec-11 22:29N 40°46' W 073°51'0 0.0
2017-Dec-11 22:00N 40°46' W 073°51'0 0.0
2017-Dec-11 21:29N 40°46' W 073°51'0 0.0
2017-Dec-11 21:00N 40°46' W 073°51'2 3.1
2017-Dec-11 20:30N 40°48' W 073°52'3 5.4
2017-Dec-11 20:00N 40°47' W 073°55'4 7.4
2017-Dec-11 19:30N 40°44' W 073°58'3 6.4
2017-Dec-11 19:00N 40°42' W 074°00'3 6.0
2017-Dec-11 18:31N 40°40' W 074°03'2 4.9
2017-Dec-11 18:01N 40°39' W 074°06'2 4.3
2017-Dec-11 17:30N 40°39' W 074°09'2 3.6
2017-Dec-11 16:59N 40°38' W 074°12'1 1.5
2017-Dec-11 16:30N 40°39' W 074°11'3 5.2
2017-Dec-11 16:00N 40°39' W 074°07'2 5.0
2017-Dec-11 15:30N 40°39' W 074°04'2 4.5
2017-Dec-11 15:01N 40°41' W 074°02'3 5.5
2017-Dec-11 14:31N 40°42' W 073°59'3 5.9
2017-Dec-11 14:01N 40°45' W 073°58'4 7.3
2017-Dec-11 13:30N 40°48' W 073°54'2 4.1
2017-Dec-11 13:00N 40°47' W 073°52'1 2.5
2017-Dec-11 12:30N 40°46' W 073°51'0 0.0
2017-Dec-11 12:00N 40°46' W 073°51'0 0.0
2017-Dec-11 11:28N 40°46' W 073°51'0 0.0
2017-Dec-11 10:38N 40°46' W 073°51'0 0.0
2017-Dec-11 10:24N 40°46' W 073°51'0 0.0
2017-Dec-11 10:00N 40°46' W 073°51'0 0.0
2017-Dec-11 09:29N 40°46' W 073°51'0 0.0
2017-Dec-11 09:00N 40°46' W 073°51'0 0.0
2017-Dec-11 08:30N 40°46' W 073°51'0 0.0
2017-Dec-11 08:00N 40°46' W 073°51'0 0.0
2017-Dec-11 07:30N 40°46' W 073°51'0 0.0
2017-Dec-11 07:00N 40°46' W 073°51'0 0.0
2017-Dec-11 06:27N 40°46' W 073°51'0 0.0
2017-Dec-11 06:00N 40°46' W 073°51'0 0.0
2017-Dec-11 05:18N 40°46' W 073°51'0 0.0
2017-Dec-11 05:00N 40°46' W 073°51'0 0.0
2017-Dec-11 04:28N 40°46' W 073°51'0 0.0
2017-Dec-11 04:01N 40°46' W 073°51'0 0.0
2017-Dec-11 03:30N 40°46' W 073°51'0 0.0
2017-Dec-11 03:00N 40°46' W 073°51'0 0.0
2017-Dec-11 02:30N 40°46' W 073°51'0 0.0
2017-Dec-11 02:01N 40°46' W 073°51'0 0.0
2017-Dec-11 01:30N 40°46' W 073°51'0 0.0
2017-Dec-11 01:00N 40°46' W 073°51'0 0.0
2017-Dec-11 00:30N 40°46' W 073°51'0 0.0
2017-Dec-11 00:00N 40°46' W 073°51'0 0.0
2017-Dec-10 23:30N 40°46' W 073°51'0 0.0
2017-Dec-10 23:00N 40°46' W 073°51'0 0.0
2017-Dec-10 22:30N 40°46' W 073°51'0 0.0
2017-Dec-10 22:00N 40°46' W 073°51'0 0.0
2017-Dec-10 21:31N 40°46' W 073°51'0 0.0
2017-Dec-10 21:00N 40°46' W 073°51'0 0.0
2017-Dec-10 20:30N 40°46' W 073°51'0 0.0
2017-Dec-10 19:58N 40°46' W 073°51'0 0.0
2017-Dec-10 19:30N 40°46' W 073°51'0 0.0
2017-Dec-10 19:00N 40°46' W 073°51'0 0.1
2017-Dec-10 18:29N 40°46' W 073°51'0 0.0
2017-Dec-10 18:00N 40°46' W 073°51'0 0.0
2017-Dec-10 17:30N 40°46' W 073°51'0 0.0
2017-Dec-10 17:00N 40°46' W 073°51'0 0.1
2017-Dec-10 16:29N 40°46' W 073°51'0 0.0
2017-Dec-10 16:01N 40°46' W 073°51'0 0.0
2017-Dec-10 15:29N 40°46' W 073°51'0 0.1
2017-Dec-10 14:58N 40°46' W 073°51'0 0.1
2017-Dec-10 14:30N 40°46' W 073°51'0 0.0
2017-Dec-10 14:00N 40°46' W 073°51'0 0.0
2017-Dec-10 13:30N 40°46' W 073°51'0 0.0
2017-Dec-10 13:00N 40°46' W 073°51'0 0.0
2017-Dec-10 12:30N 40°46' W 073°51'0 0.0
2017-Dec-10 12:00N 40°46' W 073°51'0 0.0
2017-Dec-10 11:30N 40°46' W 073°51'0 0.0
2017-Dec-10 11:00N 40°46' W 073°51'0 0.0
2017-Dec-10 10:30N 40°46' W 073°51'0 0.0
2017-Dec-10 10:00N 40°46' W 073°51'0 0.0
2017-Dec-10 09:30N 40°46' W 073°51'0 0.0
2017-Dec-10 09:00N 40°46' W 073°51'0 0.0
2017-Dec-10 08:30N 40°46' W 073°51'0 0.0
2017-Dec-10 07:59N 40°46' W 073°51'0 0.0
2017-Dec-10 07:30N 40°46' W 073°51'0 0.0
2017-Dec-10 06:58N 40°46' W 073°51'0 0.0
2017-Dec-10 06:29N 40°46' W 073°51'0 0.0
2017-Dec-10 06:00N 40°46' W 073°51'0 0.0
2017-Dec-10 05:30N 40°46' W 073°51'0 0.0
2017-Dec-10 05:00N 40°46' W 073°51'0 0.0
2017-Dec-10 04:30N 40°46' W 073°51'0 0.0
2017-Dec-10 04:00N 40°46' W 073°51'0 0.0
2017-Dec-10 03:30N 40°46' W 073°51'0 0.0
2017-Dec-10 03:00N 40°46' W 073°51'0 0.0
2017-Dec-10 02:30N 40°46' W 073°51'0 0.0
2017-Dec-10 01:57N 40°46' W 073°51'0 0.0
2017-Dec-10 01:30N 40°46' W 073°51'0 0.0
2017-Dec-10 01:00N 40°46' W 073°51'0 0.0
2017-Dec-10 00:30N 40°46' W 073°51'0 0.0
2017-Dec-10 00:00N 40°46' W 073°51'0 0.0
2017-Dec-09 23:29N 40°46' W 073°51'0 0.0
2017-Dec-09 23:00N 40°46' W 073°51'0 0.0
2017-Dec-09 22:30N 40°46' W 073°51'0 0.0
2017-Dec-09 22:00N 40°46' W 073°51'0 0.0
2017-Dec-09 21:31N 40°46' W 073°51'0 0.0
2017-Dec-09 20:59N 40°46' W 073°51'0 0.0
2017-Dec-09 20:31N 40°46' W 073°51'0 0.0
2017-Dec-09 19:59N 40°46' W 073°51'0 0.0
2017-Dec-09 19:12N 40°46' W 073°51'0 0.0
2017-Dec-09 19:00N 40°46' W 073°51'0 0.0
2017-Dec-09 18:30N 40°46' W 073°51'0 0.0
2017-Dec-09 17:58N 40°46' W 073°51'0 0.0
2017-Dec-09 17:30N 40°46' W 073°51'0 0.0
2017-Dec-09 17:00N 40°46' W 073°51'0 0.0
2017-Dec-09 16:30N 40°46' W 073°51'0 0.1
2017-Dec-09 16:00N 40°46' W 073°51'2 3.4
2017-Dec-09 15:29N 40°48' W 073°52'3 6.3
2017-Dec-09 14:59N 40°47' W 073°56'3 7.1
2017-Dec-09 14:31N 40°44' W 073°58'3 5.8
2017-Dec-09 14:00N 40°41' W 074°00'2 4.9
2017-Dec-09 13:31N 40°40' W 074°03'3 5.1
2017-Dec-09 13:00N 40°39' W 074°06'2 4.7
2017-Dec-09 12:30N 40°39' W 074°09'2 3.9
2017-Dec-09 12:00N 40°38' W 074°12'0 0.0
2017-Dec-09 11:30N 40°38' W 074°12'0 0.0
2017-Dec-09 11:01N 40°38' W 074°12'0 0.0
2017-Dec-09 10:31N 40°38' W 074°12'0 0.0
2017-Dec-09 10:00N 40°38' W 074°12'0 0.0
2017-Dec-09 09:30N 40°38' W 074°12'0 0.0
2017-Dec-09 09:00N 40°38' W 074°12'0 0.0
2017-Dec-09 08:30N 40°38' W 074°12'0 0.0
2017-Dec-09 08:00N 40°38' W 074°12'0 0.0
2017-Dec-09 07:29N 40°38' W 074°12'0 0.0
2017-Dec-09 07:00N 40°38' W 074°12'0 0.0
2017-Dec-09 06:30N 40°38' W 074°12'0 0.0
2017-Dec-09 06:00N 40°38' W 074°12'0 0.0
2017-Dec-09 05:31N 40°38' W 074°12'0 0.0
2017-Dec-09 05:00N 40°38' W 074°12'0 0.0
2017-Dec-09 04:30N 40°38' W 074°12'0 0.0
2017-Dec-09 04:00N 40°38' W 074°12'0 0.0
2017-Dec-09 03:30N 40°38' W 074°12'0 0.6
2017-Dec-09 03:00N 40°39' W 074°11'2 4.7
2017-Dec-09 02:30N 40°39' W 074°08'2 4.3
2017-Dec-09 02:00N 40°39' W 074°05'2 4.9
2017-Dec-09 01:31N 40°40' W 074°03'2 4.7
2017-Dec-09 01:00N 40°42' W 074°00'2 4.5
2017-Dec-09 00:30N 40°43' W 073°58'3 5.9
2017-Dec-08 23:59N 40°46' W 073°57'3 6.3
2017-Dec-08 23:30N 40°48' W 073°54'2 4.2
2017-Dec-08 23:00N 40°47' W 073°52'1 1.9
2017-Dec-08 22:31N 40°46' W 073°51'0 0.0
2017-Dec-08 22:00N 40°46' W 073°51'0 0.0
2017-Dec-08 21:29N 40°46' W 073°51'0 0.0
2017-Dec-08 21:00N 40°46' W 073°51'0 0.0
2017-Dec-08 20:30N 40°46' W 073°51'0 0.0
2017-Dec-08 20:00N 40°46' W 073°51'0 0.0
2017-Dec-08 19:30N 40°46' W 073°51'0 0.0
2017-Dec-08 19:00N 40°46' W 073°51'0 0.0
2017-Dec-08 18:28N 40°46' W 073°51'0 0.0
2017-Dec-08 18:00N 40°46' W 073°51'0 0.0
2017-Dec-08 17:31N 40°46' W 073°51'0 0.0
2017-Dec-08 17:00N 40°46' W 073°51'0 0.0
2017-Dec-08 16:30N 40°46' W 073°51'0 0.0
2017-Dec-08 15:59N 40°46' W 073°51'0 0.0
2017-Dec-08 15:30N 40°46' W 073°51'0 0.0
2017-Dec-08 15:00N 40°46' W 073°51'0 0.0
2017-Dec-08 14:30N 40°46' W 073°51'0 0.0
2017-Dec-08 14:00N 40°46' W 073°51'0 0.0
2017-Dec-08 13:29N 40°46' W 073°51'0 0.0
2017-Dec-08 13:00N 40°46' W 073°51'0 0.0
2017-Dec-08 12:30N 40°46' W 073°51'0 0.0
2017-Dec-08 12:01N 40°46' W 073°51'0 0.0
2017-Dec-08 11:30N 40°46' W 073°51'0 0.0
2017-Dec-08 10:58N 40°46' W 073°51'0 0.0
2017-Dec-08 10:29N 40°46' W 073°51'0 0.0
2017-Dec-08 10:00N 40°46' W 073°51'0 0.1
2017-Dec-08 09:30N 40°46' W 073°51'0 0.0
2017-Dec-08 08:56N 40°46' W 073°51'0 0.0
2017-Dec-08 08:22N 40°46' W 073°51'0 0.0
2017-Dec-08 07:59N 40°46' W 073°51'0 0.0
2017-Dec-08 07:29N 40°46' W 073°51'0 0.0
2017-Dec-08 07:00N 40°46' W 073°51'0 0.0
2017-Dec-08 06:29N 40°46' W 073°51'0 0.0
2017-Dec-08 05:59N 40°46' W 073°51'0 0.0
2017-Dec-08 05:28N 40°46' W 073°51'0 0.0
2017-Dec-08 05:00N 40°46' W 073°51'1 1.3
2017-Dec-08 04:30N 40°47' W 073°51'2 4.9
2017-Dec-08 04:00N 40°48' W 073°54'4 9.0
2017-Dec-08 03:30N 40°44' W 073°58'4 7.2
2017-Dec-08 03:01N 40°41' W 074°00'3 6.5
2017-Dec-08 02:30N 40°40' W 074°04'2 4.6
2017-Dec-08 02:01N 40°39' W 074°07'2 4.7
2017-Dec-08 01:31N 40°39' W 074°10'1 2.7
2017-Dec-08 01:01N 40°38' W 074°12'1 1.4
2017-Dec-08 00:30N 40°39' W 074°11'3 5.4
2017-Dec-08 00:00N 40°39' W 074°07'3 5.1
2017-Dec-07 23:31N 40°40' W 074°04'3 5.3
2017-Dec-07 23:00N 40°41' W 074°01'3 5.9
2017-Dec-07 22:30N 40°43' W 073°58'4 7.0
2017-Dec-07 22:00N 40°46' W 073°57'3 6.3
2017-Dec-07 21:30N 40°48' W 073°53'2 4.0
2017-Dec-07 21:00N 40°47' W 073°51'1 1.2
2017-Dec-07 20:29N 40°46' W 073°51'0 0.0
2017-Dec-07 20:00N 40°46' W 073°51'0 0.0
2017-Dec-07 19:31N 40°46' W 073°51'0 0.0
2017-Dec-07 19:00N 40°46' W 073°51'0 0.0
2017-Dec-07 18:30N 40°46' W 073°51'0 0.0
2017-Dec-07 18:01N 40°46' W 073°51'0 0.0
2017-Dec-07 17:30N 40°46' W 073°51'0 0.1
2017-Dec-07 16:59N 40°46' W 073°51'0 0.0
2017-Dec-07 16:27N 40°46' W 073°51'0 0.0
2017-Dec-07 16:00N 40°46' W 073°51'0 0.0
2017-Dec-07 15:29N 40°46' W 073°51'0 0.0
2017-Dec-07 14:59N 40°46' W 073°51'0 0.0
2017-Dec-07 14:25N 40°46' W 073°51'0 0.0
2017-Dec-07 13:45N 40°46' W 073°51'0 0.0
2017-Dec-07 13:30N 40°46' W 073°51'0 0.0
2017-Dec-07 12:58N 40°46' W 073°51'0 0.0
2017-Dec-07 12:28N 40°46' W 073°51'0 0.0
2017-Dec-07 12:00N 40°46' W 073°51'0 0.0
2017-Dec-07 11:29N 40°46' W 073°51'0 0.0
2017-Dec-07 11:00N 40°46' W 073°51'0 0.0
2017-Dec-07 10:30N 40°46' W 073°51'0 0.0
2017-Dec-07 09:59N 40°46' W 073°51'0 0.0
2017-Dec-07 09:31N 40°46' W 073°51'0 0.0
2017-Dec-07 09:01N 40°46' W 073°51'0 0.0
2017-Dec-07 08:29N 40°46' W 073°51'0 0.0
2017-Dec-07 08:00N 40°46' W 073°51'0 0.0
2017-Dec-07 07:29N 40°46' W 073°51'0 0.0
2017-Dec-07 07:00N 40°46' W 073°51'0 0.0
2017-Dec-07 06:31N 40°46' W 073°51'0 0.0
2017-Dec-07 06:00N 40°46' W 073°51'0 0.0
2017-Dec-07 05:30N 40°46' W 073°51'0 0.0
2017-Dec-07 04:59N 40°46' W 073°51'0 0.9
2017-Dec-07 04:30N 40°46' W 073°51'1 2.0
2017-Dec-07 04:00N 40°47' W 073°51'2 4.8
2017-Dec-07 03:30N 40°48' W 073°54'4 7.7
2017-Dec-07 03:00N 40°45' W 073°57'3 6.6
2017-Dec-07 02:30N 40°42' W 073°59'3 6.7
2017-Dec-07 02:01N 40°40' W 074°02'3 6.3
2017-Dec-07 01:30N 40°39' W 074°06'3 5.2
2017-Dec-07 01:00N 40°39' W 074°09'2 3.5
2017-Dec-07 00:30N 40°38' W 074°12'0 0.1
2017-Dec-07 00:00N 40°38' W 074°12'2 4.4
2017-Dec-06 23:30N 40°39' W 074°09'2 4.8
2017-Dec-06 23:00N 40°39' W 074°06'2 4.2
2017-Dec-06 22:30N 40°40' W 074°03'3 5.5
2017-Dec-06 22:01N 40°42' W 074°00'3 5.8
2017-Dec-06 21:30N 40°44' W 073°58'4 7.3
2017-Dec-06 21:00N 40°47' W 073°55'  

Dump ship's entire track history